createdAt,value
2017-05-18T00:01:32.914Z,12.10
2017-05-18T00:04:00.045Z,12.10
2017-05-18T00:06:27.525Z,12.10
2017-05-18T00:08:54.675Z,12.10
2017-05-18T00:11:21.821Z,12.10
2017-05-18T00:13:49.290Z,12.10
2017-05-18T00:16:16.422Z,12.10
2017-05-18T00:18:43.558Z,11.90
2017-05-18T00:21:11.042Z,11.80
2017-05-18T00:23:38.182Z,11.70
2017-05-18T00:26:05.352Z,11.70
2017-05-18T00:28:32.810Z,11.60
2017-05-18T00:30:59.957Z,11.60
2017-05-18T00:33:27.114Z,11.60
2017-05-18T00:35:55.396Z,11.50
2017-05-18T00:38:23.283Z,11.40
2017-05-18T00:40:51.150Z,11.30
2017-05-18T00:43:20.322Z,11.30
2017-05-18T00:45:47.474Z,11.30
2017-05-18T00:48:15.382Z,11.20
2017-05-18T00:50:42.893Z,11.20
2017-05-18T00:53:11.039Z,11.10
2017-05-18T00:55:38.178Z,11.10
2017-05-18T00:58:05.658Z,11.10
2017-05-18T01:00:32.800Z,11.00
2017-05-18T01:02:59.984Z,10.90
2017-05-18T01:05:29.129Z,10.80
2017-05-18T01:07:56.274Z,10.80
2017-05-18T01:10:23.482Z,10.80
2017-05-18T01:12:51.726Z,10.70
2017-05-18T01:15:18.862Z,10.80
2017-05-18T01:17:47.038Z,10.80
2017-05-18T01:20:14.507Z,10.80
2017-05-18T01:22:41.645Z,10.80
2017-05-18T01:25:08.785Z,10.70
2017-05-18T01:27:36.941Z,10.80
2017-05-18T01:30:04.075Z,10.80
2017-05-18T01:32:31.258Z,10.80
2017-05-18T01:34:58.730Z,10.70
2017-05-18T01:37:25.901Z,10.70
2017-05-18T01:39:53.078Z,10.70
2017-05-18T01:42:22.330Z,10.70
2017-05-18T01:44:49.498Z,10.70
2017-05-18T01:47:17.685Z,10.80
2017-05-18T01:49:45.929Z,10.80
2017-05-18T01:52:13.093Z,10.90
2017-05-18T01:54:40.234Z,11.00
2017-05-18T01:57:07.787Z,11.00
2017-05-18T01:59:34.931Z,11.10
2017-05-18T02:02:02.081Z,11.10
2017-05-18T02:04:30.468Z,11.20
2017-05-18T02:06:57.620Z,11.20
2017-05-18T02:09:24.764Z,11.20
2017-05-18T02:11:52.319Z,11.30
2017-05-18T02:14:19.455Z,11.20
2017-05-18T02:16:46.594Z,11.20
2017-05-18T02:19:14.076Z,11.20
2017-05-18T02:21:41.233Z,11.30
2017-05-18T02:24:10.406Z,11.20
2017-05-18T02:26:37.882Z,11.20
2017-05-18T02:29:05.043Z,11.10
2017-05-18T02:31:32.174Z,11.10
2017-05-18T02:33:59.630Z,11.00
2017-05-18T02:36:26.769Z,11.00
2017-05-18T02:38:53.909Z,10.80
2017-05-18T02:41:22.182Z,10.90
2017-05-18T02:43:49.329Z,10.90
2017-05-18T02:46:16.474Z,10.90
2017-05-18T02:48:45.385Z,10.90
2017-05-18T02:51:13.537Z,10.90
2017-05-18T02:53:40.685Z,10.90
2017-05-18T02:56:08.124Z,10.90
2017-05-18T02:58:35.273Z,10.90
2017-05-18T03:01:02.430Z,10.90
2017-05-18T03:03:30.793Z,10.90
2017-05-18T03:05:58.678Z,10.90
2017-05-18T03:08:26.842Z,10.90
2017-05-18T03:10:54.349Z,10.80
2017-05-18T03:13:21.477Z,10.70
2017-05-18T03:15:48.633Z,10.70
2017-05-18T03:18:16.098Z,10.70
2017-05-18T03:20:43.256Z,10.60
2017-05-18T03:23:10.385Z,10.70
2017-05-18T03:25:38.546Z,10.70
2017-05-18T03:28:05.671Z,10.80
2017-05-18T03:30:33.329Z,10.80
2017-05-18T03:33:01.594Z,10.90
2017-05-18T03:35:29.474Z,11.00
2017-05-18T03:37:57.654Z,11.20
2017-05-18T03:40:25.154Z,11.20
2017-05-18T03:42:52.286Z,11.30
2017-05-18T03:45:19.415Z,11.30
2017-05-18T03:47:57.357Z,11.50
2017-05-18T03:50:24.478Z,11.60
2017-05-18T03:52:52.631Z,11.60
2017-05-18T03:55:20.129Z,11.60
2017-05-18T03:57:47.278Z,11.60
2017-05-18T04:00:14.413Z,11.70
2017-05-18T04:02:42.675Z,11.80
2017-05-18T04:05:09.825Z,11.80
2017-05-18T04:07:36.955Z,11.80
2017-05-18T04:10:04.826Z,11.90
2017-05-18T04:12:32.690Z,11.90
2017-05-18T04:15:00.134Z,11.90
2017-05-18T04:17:28.009Z,12.00
2017-05-18T04:19:56.883Z,12.00
2017-05-18T04:22:26.013Z,12.10
2017-05-18T04:24:53.154Z,12.20
2017-05-18T04:27:20.275Z,12.20
2017-05-18T04:29:48.517Z,12.20
2017-05-18T04:32:15.652Z,12.20
2017-05-18T04:34:42.787Z,12.20
2017-05-18T04:37:09.925Z,12.30
2017-05-18T04:39:37.049Z,12.30
2017-05-18T04:42:05.293Z,12.30
2017-05-18T04:44:32.454Z,12.40
2017-05-18T04:47:00.641Z,12.50
2017-05-18T04:49:28.201Z,12.60
2017-05-18T04:51:56.127Z,12.60
2017-05-18T04:54:23.296Z,12.70
2017-05-18T04:56:51.506Z,12.80
2017-05-18T04:59:19.406Z,12.80
2017-05-18T05:01:46.962Z,12.90
2017-05-18T05:04:14.443Z,13.10
2017-05-18T05:06:41.644Z,13.10
2017-05-18T05:09:08.866Z,13.20
2017-05-18T05:11:37.117Z,13.20
2017-05-18T05:14:04.250Z,13.30
2017-05-18T05:16:31.386Z,13.50
2017-05-18T05:18:58.533Z,13.60
2017-05-18T05:21:25.653Z,13.70
2017-05-18T05:23:54.791Z,13.70
2017-05-18T05:26:21.918Z,13.80
2017-05-18T05:28:49.064Z,14.00
2017-05-18T05:31:16.561Z,14.10
2017-05-18T05:33:43.717Z,14.20
2017-05-18T05:36:10.877Z,14.20
2017-05-18T05:38:38.317Z,14.40
2017-05-18T05:41:05.470Z,14.50
2017-05-18T05:43:32.598Z,14.60
2017-05-18T05:46:01.102Z,14.80
2017-05-18T05:48:28.258Z,15.00
2017-05-18T05:50:55.378Z,15.10
2017-05-18T05:53:22.877Z,15.30
2017-05-18T05:55:50.013Z,15.50
2017-05-18T05:58:17.130Z,15.80
2017-05-18T06:00:45.537Z,16.00
2017-05-18T06:03:12.681Z,16.20
2017-05-18T06:05:39.877Z,16.40
2017-05-18T06:08:08.779Z,16.50
2017-05-18T06:10:36.638Z,16.70
2017-05-18T06:13:04.785Z,17.00
2017-05-18T06:15:32.239Z,17.20
2017-05-18T06:18:00.385Z,17.30
2017-05-18T06:20:27.531Z,17.60
2017-05-18T06:22:55.726Z,17.80
2017-05-18T06:25:23.617Z,18.00
2017-05-18T06:27:51.758Z,18.30
2017-05-18T06:30:19.202Z,18.50
2017-05-18T06:32:46.346Z,18.80
2017-05-18T06:35:13.942Z,19.00
2017-05-18T06:37:41.465Z,19.20
2017-05-18T06:40:08.590Z,19.40
2017-05-18T06:42:35.713Z,19.50
2017-05-18T06:45:04.961Z,19.70
2017-05-18T06:47:32.102Z,19.90
2017-05-18T06:49:59.246Z,20.00
2017-05-18T06:52:26.722Z,20.10
2017-05-18T06:54:54.904Z,20.20
2017-05-18T06:57:22.054Z,20.00
2017-05-18T06:59:48.785Z,20.00
2017-05-18T07:02:16.929Z,20.50
2017-05-18T07:04:44.063Z,20.70
2017-05-18T07:07:12.459Z,20.90
2017-05-18T07:09:39.582Z,21.10
2017-05-18T07:12:06.757Z,21.40
2017-05-18T07:14:35.278Z,21.50
2017-05-18T07:17:02.422Z,21.50
2017-05-18T07:19:30.570Z,21.70
2017-05-18T07:21:58.041Z,21.80
2017-05-18T07:24:26.175Z,21.80
2017-05-18T07:26:53.311Z,22.10
2017-05-18T07:29:22.415Z,22.20
2017-05-18T07:31:50.282Z,22.40
2017-05-18T07:34:17.437Z,22.40
2017-05-18T07:36:46.681Z,21.90
2017-05-18T07:39:13.800Z,21.70
2017-05-18T07:41:40.954Z,21.50
2017-05-18T07:44:09.170Z,21.70
2017-05-18T07:46:36.300Z,22.00
2017-05-18T07:49:03.433Z,22.20
2017-05-18T07:51:30.897Z,22.00
2017-05-18T07:53:58.038Z,22.30
2017-05-18T07:56:25.222Z,22.40
2017-05-18T07:58:52.722Z,22.30
2017-05-18T08:01:19.854Z,22.40
2017-05-18T08:03:47.726Z,22.60
2017-05-18T08:06:15.945Z,22.80
2017-05-18T08:08:43.074Z,23.00
2017-05-18T08:11:10.210Z,22.80
2017-05-18T08:13:38.726Z,22.90
2017-05-18T08:16:05.849Z,22.80
2017-05-18T08:18:33.993Z,23.00
2017-05-18T08:21:02.907Z,23.10
2017-05-18T08:23:30.029Z,23.00
2017-05-18T08:25:57.918Z,23.10
2017-05-18T08:28:25.410Z,23.40
2017-05-18T08:30:52.532Z,23.30
2017-05-18T08:33:19.661Z,23.50
2017-05-18T08:35:47.937Z,23.50
2017-05-18T08:38:15.076Z,23.20
2017-05-18T08:40:42.954Z,23.20
2017-05-18T08:43:11.108Z,23.20
2017-05-18T08:45:38.233Z,23.50
2017-05-18T08:48:05.361Z,23.60
2017-05-18T08:50:34.092Z,23.30
2017-05-18T08:53:01.961Z,23.30
2017-05-18T08:55:29.830Z,23.20
2017-05-18T08:57:58.793Z,23.20
2017-05-18T09:00:25.913Z,23.10
2017-05-18T09:02:53.054Z,23.40
2017-05-18T09:05:20.448Z,23.50
2017-05-18T09:07:48.594Z,23.60
2017-05-18T09:10:15.721Z,23.40
2017-05-18T09:12:43.945Z,23.20
2017-05-18T09:15:11.065Z,23.60
2017-05-18T09:17:38.194Z,23.80
2017-05-18T09:20:05.626Z,23.90
2017-05-18T09:22:33.498Z,23.80
2017-05-18T09:25:01.354Z,23.70
2017-05-18T09:27:29.554Z,23.50
2017-05-18T09:29:56.689Z,23.70
2017-05-18T09:32:24.574Z,23.70
2017-05-18T09:34:52.057Z,24.10
2017-05-18T09:37:19.173Z,24.50
2017-05-18T09:39:46.310Z,24.60
2017-05-18T09:42:14.613Z,24.40
2017-05-18T09:44:41.741Z,24.40
2017-05-18T09:47:08.877Z,23.90
2017-05-18T09:49:37.106Z,24.10
2017-05-18T09:52:04.238Z,24.80
2017-05-18T09:54:31.359Z,25.00
2017-05-18T09:57:00.481Z,24.60
2017-05-18T09:59:27.601Z,24.30
2017-05-18T10:01:54.749Z,24.40
2017-05-18T10:04:22.958Z,24.20
2017-05-18T10:06:50.097Z,24.70
2017-05-18T10:09:17.218Z,25.10
2017-05-18T10:11:44.719Z,24.70
2017-05-18T10:14:11.887Z,24.10
2017-05-18T10:16:39.794Z,24.20
2017-05-18T10:19:08.322Z,24.20
2017-05-18T10:21:35.457Z,24.20
2017-05-18T10:24:02.589Z,24.60
2017-05-18T10:26:31.110Z,24.40
2017-05-18T10:28:58.238Z,24.60
2017-05-18T10:31:25.361Z,24.70
2017-05-18T10:33:53.599Z,24.90
2017-05-18T10:36:20.725Z,25.00
2017-05-18T10:38:47.869Z,24.80
2017-05-18T10:41:15.332Z,24.60
2017-05-18T10:43:42.462Z,24.30
2017-05-18T10:46:09.598Z,24.50
2017-05-18T10:48:37.090Z,24.80
2017-05-18T10:51:04.209Z,25.50
2017-05-18T10:53:31.359Z,25.20
2017-05-18T10:55:58.855Z,25.40
2017-05-18T10:58:26.015Z,26.00
2017-05-18T11:00:53.934Z,25.20
2017-05-18T11:03:21.509Z,26.20
2017-05-18T11:05:48.658Z,26.20
2017-05-18T11:08:15.834Z,26.40
2017-05-18T11:10:44.139Z,26.20
2017-05-18T11:13:12.043Z,25.80
2017-05-18T11:15:40.210Z,25.90
2017-05-18T11:18:08.726Z,26.20
2017-05-18T11:20:35.852Z,25.70
2017-05-18T11:23:02.971Z,25.90
2017-05-18T11:25:30.467Z,25.70
2017-05-18T11:27:58.622Z,25.70
2017-05-18T11:30:25.753Z,26.10
2017-05-18T11:32:53.242Z,26.00
2017-05-18T11:35:20.362Z,26.20
2017-05-18T11:37:47.489Z,26.20
2017-05-18T11:40:15.813Z,25.50
2017-05-18T11:42:42.965Z,26.00
2017-05-18T11:45:10.087Z,26.30
2017-05-18T11:47:37.582Z,26.90
2017-05-18T11:50:04.710Z,27.40
2017-05-18T11:52:31.871Z,26.40
2017-05-18T11:54:59.325Z,27.10
2017-05-18T11:57:26.445Z,26.40
2017-05-18T11:59:54.583Z,27.40
2017-05-18T12:02:22.002Z,27.20
2017-05-18T12:04:49.131Z,26.70
2017-05-18T12:07:16.266Z,26.90
2017-05-18T12:09:44.526Z,26.80
2017-05-18T12:12:12.389Z,27.10
2017-05-18T12:14:41.273Z,27.30
2017-05-18T12:17:09.453Z,28.00
2017-05-18T12:19:37.322Z,28.70
2017-05-18T12:22:05.194Z,28.90
2017-05-18T12:24:34.357Z,27.70
2017-05-18T12:27:01.501Z,27.40
2017-05-18T12:29:28.681Z,27.00
2017-05-18T12:31:56.882Z,29.20
2017-05-18T12:34:24.013Z,29.10
2017-05-18T12:36:51.918Z,28.60
2017-05-18T12:39:20.210Z,26.90
2017-05-18T12:41:47.350Z,28.90
2017-05-18T12:44:14.497Z,30.10
2017-05-18T12:46:42.053Z,30.20
2017-05-18T12:49:09.182Z,29.40
2017-05-18T12:51:36.302Z,28.30
2017-05-18T12:54:04.742Z,27.10
2017-05-18T12:56:31.857Z,30.00
2017-05-18T12:58:59.055Z,31.70
2017-05-18T13:01:26.489Z,30.90
2017-05-18T13:03:53.620Z,29.10
2017-05-18T13:06:21.785Z,32.10
2017-05-18T13:08:49.266Z,30.30
2017-05-18T13:11:16.402Z,28.80
2017-05-18T13:13:43.539Z,28.20
2017-05-18T13:16:10.973Z,30.80
2017-05-18T13:18:40.141Z,29.80
2017-05-18T13:21:07.319Z,28.00
2017-05-18T13:23:36.234Z,28.00
2017-05-18T13:26:03.354Z,27.20
2017-05-18T13:28:31.215Z,27.60
2017-05-18T13:30:58.734Z,27.50
2017-05-18T13:33:25.862Z,27.80
2017-05-18T13:35:53.014Z,28.00
2017-05-18T13:38:20.429Z,27.80
2017-05-18T13:40:48.300Z,27.80
2017-05-18T13:43:16.165Z,28.60
2017-05-18T13:45:45.413Z,29.90
2017-05-18T13:48:12.554Z,34.50
2017-05-18T13:50:39.685Z,34.60
2017-05-18T13:53:07.822Z,36.20
2017-05-18T13:55:34.946Z,34.60
2017-05-18T13:58:02.069Z,35.00
2017-05-18T14:00:30.373Z,35.40
2017-05-18T14:02:57.538Z,34.50
2017-05-18T14:05:24.699Z,36.80
2017-05-18T14:07:52.854Z,35.00
2017-05-18T14:10:19.989Z,34.80
2017-05-18T14:12:47.157Z,35.20
2017-05-18T14:15:14.585Z,35.70
2017-05-18T14:17:41.718Z,34.30
2017-05-18T14:20:08.843Z,32.20
2017-05-18T14:22:37.010Z,34.90
2017-05-18T14:25:04.873Z,34.90
2017-05-18T14:27:32.013Z,33.90
2017-05-18T14:30:00.245Z,37.40
2017-05-18T14:32:27.377Z,36.00
2017-05-18T14:34:54.517Z,36.20
2017-05-18T14:37:22.723Z,33.70
2017-05-18T14:39:49.857Z,30.60
2017-05-18T14:42:16.993Z,30.20
2017-05-18T14:44:44.477Z,33.30
2017-05-18T14:47:11.611Z,37.80
2017-05-18T14:49:38.729Z,38.30
2017-05-18T14:52:06.926Z,37.10
2017-05-18T14:54:34.074Z,34.90
2017-05-18T14:57:01.209Z,32.00
2017-05-18T14:59:28.699Z,29.30
2017-05-18T15:01:55.817Z,27.10
2017-05-18T15:04:22.958Z,26.20
2017-05-18T15:06:50.465Z,26.50
2017-05-18T15:09:17.594Z,26.50
2017-05-18T15:11:45.743Z,26.60
2017-05-18T15:14:13.235Z,26.50
2017-05-18T15:16:40.369Z,32.20
2017-05-18T15:19:07.497Z,32.60
2017-05-18T15:21:34.986Z,29.40
2017-05-18T15:24:03.146Z,28.30
2017-05-18T15:26:30.274Z,31.40
2017-05-18T15:28:57.766Z,29.50
2017-05-18T15:31:24.910Z,28.30
2017-05-18T15:33:52.068Z,30.10
2017-05-18T15:36:20.458Z,33.90
2017-05-18T15:38:47.590Z,31.50
2017-05-18T15:41:14.714Z,34.00
2017-05-18T15:43:42.202Z,30.70
2017-05-18T15:46:09.353Z,29.40
2017-05-18T15:48:36.479Z,28.50
2017-05-18T15:51:04.902Z,28.40
2017-05-18T15:53:32.830Z,27.60
2017-05-18T15:55:59.971Z,27.60
2017-05-18T15:58:27.389Z,27.20
2017-05-18T16:00:55.253Z,26.50
2017-05-18T16:03:23.127Z,27.80
2017-05-18T16:05:51.358Z,30.10
2017-05-18T16:08:18.492Z,31.50
2017-05-18T16:10:45.623Z,29.70
2017-05-18T16:13:13.117Z,31.70
2017-05-18T16:15:40.243Z,32.50
2017-05-18T16:18:07.366Z,31.50
2017-05-18T16:20:35.677Z,29.90
2017-05-18T16:23:02.815Z,28.10
2017-05-18T16:25:29.965Z,27.50
2017-05-18T16:27:58.376Z,27.40
2017-05-18T16:30:25.501Z,28.60
2017-05-18T16:32:52.627Z,30.00
2017-05-18T16:35:20.114Z,31.50
2017-05-18T16:37:47.258Z,31.40
2017-05-18T16:40:15.417Z,30.20
2017-05-18T16:42:43.917Z,28.90
2017-05-18T16:45:11.045Z,28.40
2017-05-18T16:47:38.965Z,27.80
2017-05-18T16:50:07.106Z,27.10
2017-05-18T16:52:34.275Z,26.50
2017-05-18T16:55:01.422Z,26.40
2017-05-18T16:57:28.857Z,25.70
2017-05-18T16:59:56.031Z,25.20
2017-05-18T17:02:23.161Z,25.10
2017-05-18T17:04:50.621Z,24.80
2017-05-18T17:07:17.749Z,24.20
2017-05-18T17:09:46.905Z,24.10
2017-05-18T17:12:15.145Z,23.90
2017-05-18T17:14:42.267Z,23.80
2017-05-18T17:17:09.381Z,23.50
2017-05-18T17:19:37.523Z,23.30
2017-05-18T17:22:04.654Z,23.20
2017-05-18T17:24:31.789Z,23.30
2017-05-18T17:26:59.257Z,23.00
2017-05-18T17:29:26.391Z,23.10
2017-05-18T17:31:54.538Z,22.90
2017-05-18T17:34:23.546Z,22.90
2017-05-18T17:36:50.677Z,22.90
2017-05-18T17:39:18.573Z,22.90
2017-05-18T17:41:46.059Z,22.70
2017-05-18T17:44:13.186Z,22.70
2017-05-18T17:46:40.325Z,22.60
2017-05-18T17:49:07.801Z,22.50
2017-05-18T17:51:35.958Z,22.30
2017-05-18T17:54:03.081Z,22.20
2017-05-18T17:56:31.526Z,22.20
2017-05-18T17:58:58.674Z,22.10
2017-05-18T18:01:25.822Z,21.90
2017-05-18T18:03:53.260Z,21.90
2017-05-18T18:06:20.377Z,21.80
2017-05-18T18:08:48.525Z,21.70
2017-05-18T18:11:16.749Z,21.60
2017-05-18T18:13:43.898Z,21.50
2017-05-18T18:16:11.038Z,21.40
2017-05-18T18:18:39.230Z,21.20
2017-05-18T18:21:07.133Z,21.10
2017-05-18T18:23:35.011Z,20.90
2017-05-18T18:26:02.544Z,20.90
2017-05-18T18:28:29.669Z,20.80
2017-05-18T18:30:56.799Z,20.60
2017-05-18T18:33:24.961Z,20.50
2017-05-18T18:35:52.105Z,20.40
2017-05-18T18:38:19.241Z,20.30
2017-05-18T18:40:47.478Z,20.00
2017-05-18T18:43:14.617Z,19.80
2017-05-18T18:45:41.765Z,19.60
2017-05-18T18:48:09.223Z,19.40
2017-05-18T18:50:36.358Z,19.30
2017-05-18T18:53:03.517Z,19.10
2017-05-18T18:55:31.770Z,19.00
2017-05-18T18:57:58.981Z,18.90
2017-05-18T19:00:26.878Z,18.70
2017-05-18T19:02:54.362Z,18.70
2017-05-18T19:05:21.497Z,18.60
2017-05-18T19:07:48.625Z,18.50
2017-05-18T19:10:16.120Z,18.50
2017-05-18T19:12:44.262Z,18.30
2017-05-18T19:15:11.464Z,18.30
2017-05-18T19:17:38.902Z,18.30
2017-05-18T19:20:06.025Z,18.30
2017-05-18T19:22:33.147Z,18.20
2017-05-18T19:25:00.657Z,18.20
2017-05-18T19:27:27.773Z,18.20
2017-05-18T19:29:54.902Z,18.10
2017-05-18T19:32:23.126Z,18.00
2017-05-18T19:34:50.570Z,18.10
2017-05-18T19:37:18.750Z,18.00
2017-05-18T19:39:46.213Z,18.00
2017-05-18T19:42:13.337Z,17.90
2017-05-18T19:44:40.505Z,17.80
2017-05-18T19:47:07.964Z,17.70
2017-05-18T19:49:35.097Z,17.70
2017-05-18T19:52:02.217Z,17.70
2017-05-18T19:54:30.458Z,17.70
2017-05-18T19:56:57.589Z,17.60
2017-05-18T19:59:24.772Z,17.60
2017-05-18T20:01:52.398Z,17.50
2017-05-18T20:04:19.852Z,17.40
2017-05-18T20:06:47.023Z,17.30
2017-05-18T20:09:15.387Z,17.30
2017-05-18T20:11:42.517Z,17.30
2017-05-18T20:14:09.659Z,17.20
2017-05-18T20:16:37.132Z,17.10
2017-05-18T20:19:04.269Z,17.10
2017-05-18T20:21:31.395Z,17.00
2017-05-18T20:23:58.893Z,17.00
2017-05-18T20:26:26.022Z,16.90
2017-05-18T20:28:53.147Z,16.80
2017-05-18T20:31:20.651Z,16.80
2017-05-18T20:33:47.807Z,16.70
2017-05-18T20:36:14.955Z,16.90
2017-05-18T20:38:42.413Z,17.10
2017-05-18T20:41:09.534Z,17.20
2017-05-18T20:43:36.661Z,17.30
2017-05-18T20:46:04.087Z,17.30
2017-05-18T20:48:31.211Z,17.30
2017-05-18T20:50:58.410Z,17.30
2017-05-18T20:53:26.547Z,17.10
2017-05-18T20:55:53.685Z,16.70
2017-05-18T20:58:20.823Z,16.40
2017-05-18T21:00:48.278Z,16.30
2017-05-18T21:03:15.414Z,16.30
2017-05-18T21:05:42.567Z,16.30
2017-05-18T21:08:10.042Z,16.40
2017-05-18T21:10:37.161Z,16.30
2017-05-18T21:13:04.308Z,16.30
2017-05-18T21:15:32.559Z,16.20
2017-05-18T21:18:00.425Z,16.20
2017-05-18T21:20:29.598Z,16.20
2017-05-18T21:22:57.029Z,16.20
2017-05-18T21:25:24.173Z,16.40
2017-05-18T21:27:51.305Z,16.20
2017-05-18T21:30:18.785Z,16.10
2017-05-18T21:32:45.914Z,16.10
2017-05-18T21:35:13.071Z,16.00
2017-05-18T21:37:40.533Z,16.00
2017-05-18T21:40:07.666Z,16.00
2017-05-18T21:42:34.798Z,16.00
2017-05-18T21:45:04.685Z,15.90
2017-05-18T21:47:32.568Z,15.80
2017-05-18T21:49:59.706Z,15.80
2017-05-18T21:52:28.662Z,15.70
2017-05-18T21:54:55.786Z,15.70
2017-05-18T21:57:22.922Z,15.70
2017-05-18T21:59:50.405Z,15.60
2017-05-18T22:02:17.642Z,15.50
2017-05-18T22:04:44.779Z,15.50
2017-05-18T22:07:12.274Z,15.50
2017-05-18T22:09:39.397Z,15.60
2017-05-18T22:12:06.534Z,15.50
2017-05-18T22:14:34.013Z,15.50
2017-05-18T22:17:01.153Z,15.40
2017-05-18T22:19:28.342Z,15.40
2017-05-18T22:21:55.783Z,15.40
2017-05-18T22:24:22.929Z,15.50
2017-05-18T22:26:50.101Z,15.50
2017-05-18T22:29:18.562Z,15.40
2017-05-18T22:31:45.702Z,15.40
2017-05-18T22:34:12.877Z,15.40
2017-05-18T22:36:41.130Z,15.30
2017-05-18T22:39:08.257Z,15.20
2017-05-18T22:41:35.374Z,15.30
2017-05-18T22:44:03.597Z,15.20
2017-05-18T22:46:30.787Z,15.30
2017-05-18T22:48:57.910Z,15.40
2017-05-18T22:51:25.353Z,15.30
2017-05-18T22:53:52.486Z,15.30
2017-05-18T22:56:19.622Z,15.20
2017-05-18T22:58:47.061Z,15.20
2017-05-18T23:01:14.219Z,15.30
2017-05-18T23:03:41.363Z,15.30
2017-05-18T23:06:08.875Z,15.30
2017-05-18T23:08:36.022Z,15.30
2017-05-18T23:11:03.145Z,15.30
2017-05-18T23:13:30.617Z,15.10
2017-05-18T23:15:57.755Z,15.00
2017-05-18T23:18:24.890Z,15.00
2017-05-18T23:20:53.105Z,15.00
2017-05-18T23:23:20.237Z,15.00
2017-05-18T23:25:47.370Z,15.10
2017-05-18T23:28:14.849Z,15.00
2017-05-18T23:30:42.001Z,14.90
2017-05-18T23:33:09.146Z,14.70
2017-05-18T23:35:36.613Z,14.60
2017-05-18T23:38:03.757Z,14.90
2017-05-18T23:40:30.878Z,14.80
2017-05-18T23:42:58.299Z,14.70
2017-05-18T23:45:26.177Z,14.60
2017-05-18T23:47:53.320Z,14.70
2017-05-18T23:50:21.554Z,14.60
2017-05-18T23:52:49.718Z,14.60
2017-05-18T23:55:16.845Z,14.60
2017-05-18T23:57:45.081Z,14.60
